createdAt,value
2023-03-25T00:08:29.743Z,8.04
2023-03-25T00:12:59.620Z,8.01
2023-03-25T00:43:20.920Z,7.91
2023-03-25T00:47:42.760Z,7.87
2023-03-25T00:52:11.970Z,7.83
2023-03-25T00:56:40.745Z,7.78
2023-03-25T01:14:00.650Z,7.67
2023-03-25T01:18:29.924Z,7.61
2023-03-25T01:22:58.743Z,7.58
2023-03-25T01:27:29.036Z,7.56
2023-03-25T01:31:56.729Z,7.57
2023-03-25T02:02:19.199Z,7.57
2023-03-25T02:06:47.910Z,7.55
2023-03-25T02:33:47.109Z,7.57
2023-03-25T02:38:03.013Z,7.53
2023-03-25T02:42:31.671Z,7.52
2023-03-25T02:46:52.970Z,7.52
2023-03-25T02:51:15.712Z,7.52
2023-03-25T02:55:45.434Z,7.54
2023-03-25T03:17:37.989Z,7.67
2023-03-25T03:22:12.912Z,7.71
2023-03-25T03:26:47.795Z,7.75
2023-03-25T03:39:51.220Z,7.96
2023-03-25T03:44:23.260Z,8.01
2023-03-25T03:49:01.231Z,8.04
2023-03-25T04:01:59.583Z,8.08
2023-03-25T04:06:28.833Z,8.03
2023-03-25T04:11:00.722Z,8.02
2023-03-25T04:15:18.408Z,7.99
2023-03-25T04:19:48.147Z,7.97
2023-03-25T04:45:40.863Z,8.10
2023-03-25T04:49:58.907Z,8.13
2023-03-25T04:57:34.990Z,8.25
2023-03-25T05:01:38.799Z,8.30
2023-03-25T05:06:04.276Z,8.38
2023-03-25T05:31:51.870Z,8.61
2023-03-25T05:36:03.092Z,8.63
2023-03-25T05:59:47.710Z,8.88
2023-03-25T06:03:53.847Z,8.90
2023-03-25T06:07:20.546Z,8.92
2023-03-25T06:11:21.743Z,8.95
2023-03-25T06:15:40.768Z,8.95
2023-03-25T06:36:33.878Z,9.08
2023-03-25T06:40:34.798Z,9.09
2023-03-25T06:44:56.644Z,9.12
2023-03-25T06:48:56.429Z,9.17
2023-03-25T06:52:51.122Z,9.28
2023-03-25T06:56:36.607Z,9.40
2023-03-25T07:00:54.706Z,9.53
2023-03-25T07:05:03.878Z,9.69
2023-03-25T07:22:06.281Z,10.47
2023-03-25T07:26:36.125Z,10.56
2023-03-25T07:31:05.913Z,10.59
2023-03-25T07:35:26.949Z,10.62
2023-03-25T08:08:48.258Z,12.02
2023-03-25T08:13:17.651Z,12.02
2023-03-25T08:17:10.260Z,11.96
2023-03-25T08:20:43.186Z,11.88
2023-03-25T08:24:24.744Z,11.84
2023-03-25T08:49:08.814Z,11.90
2023-03-25T08:53:37.724Z,12.11
2023-03-25T08:57:51.425Z,12.45
2023-03-25T09:02:10.521Z,12.76
2023-03-25T09:06:11.134Z,12.97
2023-03-25T09:10:41.379Z,13.21
2023-03-25T09:39:46.652Z,13.41
2023-03-25T09:44:01.664Z,13.48
2023-03-25T09:48:14.593Z,13.59
2023-03-25T09:52:45.102Z,13.78
2023-03-25T09:57:21.128Z,13.85
2023-03-25T10:01:33.753Z,13.79
2023-03-25T10:06:10.705Z,13.68
2023-03-25T11:06:38.090Z,14.75
2023-03-25T11:11:15.911Z,14.82
2023-03-25T11:15:22.080Z,14.82
2023-03-25T11:19:39.905Z,14.64
2023-03-25T11:24:08.278Z,14.48
2023-03-25T11:33:11.966Z,14.51
2023-03-25T11:41:17.156Z,14.83
2023-03-25T11:45:57.822Z,14.76
2023-03-25T12:28:47.724Z,15.81
2023-03-25T12:33:17.749Z,16.06
2023-03-25T12:37:49.207Z,15.83
2023-03-25T12:42:03.583Z,15.90
2023-03-25T12:46:47.498Z,15.81
2023-03-25T12:51:13.116Z,15.92
2023-03-25T13:55:40.923Z,13.43
2023-03-25T14:00:28.849Z,14.35
2023-03-25T14:05:21.801Z,14.99
2023-03-25T14:22:16.379Z,14.23
2023-03-25T14:26:31.753Z,13.67
2023-03-25T14:30:30.793Z,13.18
2023-03-25T14:35:03.278Z,13.28
2023-03-25T14:39:08.060Z,13.21
2023-03-25T14:43:28.180Z,13.44
2023-03-25T14:47:56.576Z,13.89
2023-03-25T15:31:29.574Z,11.88
2023-03-25T15:35:48.162Z,11.24
2023-03-25T15:44:58.445Z,11.05
2023-03-25T15:49:18.955Z,11.17
2023-03-25T15:53:42.560Z,11.20
2023-03-25T15:57:24.299Z,11.14
2023-03-25T16:01:38.341Z,11.12
2023-03-25T16:05:49.044Z,11.05
2023-03-25T16:09:40.660Z,10.97
2023-03-25T16:13:36.975Z,10.92
2023-03-25T16:17:18.067Z,10.84
2023-03-25T16:21:01.302Z,10.75
2023-03-25T16:25:18.638Z,10.64
2023-03-25T17:21:22.663Z,9.53
2023-03-25T17:25:41.247Z,9.45
2023-03-25T17:30:03.145Z,9.40
2023-03-25T17:56:16.247Z,9.22
2023-03-25T18:00:45.326Z,9.19
2023-03-25T18:05:15.522Z,9.12
2023-03-25T18:27:06.087Z,8.90
2023-03-25T18:31:30.505Z,8.87
2023-03-25T18:36:00.338Z,8.84
2023-03-25T18:40:05.972Z,8.81
2023-03-25T19:05:06.371Z,8.73
2023-03-25T19:09:11.010Z,8.67
2023-03-25T19:13:11.591Z,8.64
2023-03-25T19:17:40.423Z,8.60
2023-03-25T19:22:09.699Z,8.57
2023-03-25T19:25:51.856Z,8.52
2023-03-25T19:29:39.746Z,8.49
2023-03-25T19:34:09.412Z,8.44
2023-03-25T20:00:10.224Z,8.27
2023-03-25T20:04:11.991Z,8.28
2023-03-25T20:08:30.736Z,8.26
2023-03-25T20:12:44.620Z,8.24
2023-03-25T20:16:56.323Z,8.20
2023-03-25T20:34:08.352Z,7.95
2023-03-25T20:38:20.817Z,7.87
2023-03-25T20:42:12.810Z,7.81
2023-03-25T21:12:32.820Z,7.78
2023-03-25T21:17:10.816Z,7.84
2023-03-25T21:21:39.591Z,7.91
2023-03-25T21:25:55.193Z,7.96
2023-03-25T21:30:13.399Z,8.01
2023-03-25T21:51:54.527Z,8.10
2023-03-25T21:56:26.226Z,8.11
2023-03-25T22:17:51.295Z,8.16
2023-03-25T22:22:05.037Z,8.19
2023-03-25T22:26:13.940Z,8.21
2023-03-25T22:30:43.745Z,8.22
2023-03-25T22:35:04.929Z,8.26
2023-03-25T22:52:07.351Z,8.34
2023-03-25T22:56:34.123Z,8.36
2023-03-25T23:00:56.187Z,8.39
2023-03-25T23:05:14.922Z,8.41
2023-03-25T23:13:52.645Z,8.45
2023-03-25T23:39:50.091Z,8.58
2023-03-25T23:44:11.681Z,8.57
2023-03-25T23:48:40.475Z,8.55
2023-03-25T23:53:03.424Z,8.52
2023-03-25T23:57:33.057Z,8.50
